Westover Hills, Texas
Current Conditions -  °F | °C
As of 10:52 PM on Wednesday 26 Nov 2014 (Local Time) from KNFW Reporting Station
Clear Clear  
Wind Chill: 52°   Ceiling: Unl
Heat Index: 52°   Visibility: 10mi
Dew Point: 33°   Wind: 5mph
Humidity: 49%   Direction: 310°NW
Pressure: 30.44"   Gusts: NA
Location:  32.74°N, 97.3832°W
Report Text: KNFW 270452Z 31004KT 10SM CLR 11/01 A3044 RMK AO2 SLP287 T01110006
Loading
Personal Weather Stations






























Interactive Weather Map New forecast layout! Learn more

10-Day Weather Forecast

Advertisements
Track Severe Weather on mobile